createdAt,value
2017-07-04T00:00:22.463Z,101560.82
2017-07-04T00:02:50.094Z,101563.56
2017-07-04T00:05:17.612Z,101561.41
2017-07-04T00:07:45.191Z,101563.02
2017-07-04T00:10:12.809Z,101560.88
2017-07-04T00:12:40.367Z,101561.70
2017-07-04T00:15:07.926Z,101556.98
2017-07-04T00:17:35.516Z,101562.00
2017-07-04T00:20:03.035Z,101561.04
2017-07-04T00:22:30.579Z,101557.66
2017-07-04T00:24:58.166Z,101560.52
2017-07-04T00:27:25.760Z,101559.63
2017-07-04T00:29:53.324Z,101557.47
2017-07-04T00:32:20.887Z,101560.95
2017-07-04T00:34:48.440Z,101556.34
2017-07-04T00:37:15.955Z,101552.39
2017-07-04T00:39:43.585Z,101560.39
2017-07-04T00:42:11.129Z,101555.11
2017-07-04T00:44:38.779Z,101558.28
2017-07-04T00:47:06.413Z,101546.02
2017-07-04T00:49:33.981Z,101544.88
2017-07-04T00:52:01.594Z,101542.13
2017-07-04T00:54:29.139Z,101544.89
2017-07-04T00:56:56.783Z,101551.30
2017-07-04T00:59:24.363Z,101548.09
2017-07-04T01:01:51.944Z,101551.11
2017-07-04T01:04:19.476Z,101552.62
2017-07-04T01:06:47.115Z,101545.87
2017-07-04T01:09:14.744Z,101542.95
2017-07-04T01:11:42.311Z,101542.42
2017-07-04T01:14:09.914Z,101549.45
2017-07-04T01:16:37.412Z,101538.14
2017-07-04T01:19:05.052Z,101539.64
2017-07-04T01:21:32.604Z,101542.77
2017-07-04T01:24:00.202Z,101542.33
2017-07-04T01:26:27.766Z,101546.97
2017-07-04T01:28:55.291Z,101548.28
2017-07-04T01:31:22.815Z,101555.97
2017-07-04T01:33:50.378Z,101554.86
2017-07-04T01:36:17.899Z,101551.27
2017-07-04T01:38:45.428Z,101553.33
2017-07-04T01:41:12.962Z,101559.42
2017-07-04T01:43:40.524Z,101555.72
2017-07-04T01:46:08.018Z,101559.96
2017-07-04T01:48:35.575Z,101556.80
2017-07-04T01:51:03.087Z,101554.25
2017-07-04T01:53:30.627Z,101556.72
2017-07-04T01:55:58.151Z,101560.28
2017-07-04T01:58:25.700Z,101558.06
2017-07-04T02:00:53.222Z,101559.14
2017-07-04T02:03:20.754Z,101553.33
2017-07-04T02:05:48.303Z,101553.78
2017-07-04T02:08:15.818Z,101554.47
2017-07-04T02:10:43.426Z,101556.52
2017-07-04T02:13:10.943Z,101551.50
2017-07-04T02:15:38.559Z,101548.08
2017-07-04T02:18:06.087Z,101546.81
2017-07-04T02:20:33.690Z,101546.38
2017-07-04T02:23:01.267Z,101549.97
2017-07-04T02:25:28.863Z,101553.54
2017-07-04T02:27:56.402Z,101553.41
2017-07-04T02:30:23.918Z,101550.32
2017-07-04T02:32:51.608Z,101553.91
2017-07-04T02:35:19.115Z,101552.89
2017-07-04T02:37:46.635Z,101548.97
2017-07-04T02:40:14.168Z,101558.91
2017-07-04T02:42:41.681Z,101560.55
2017-07-04T02:45:09.256Z,101562.28
2017-07-04T02:47:36.768Z,101563.16
2017-07-04T02:50:04.309Z,101561.02
2017-07-04T02:52:31.818Z,101563.02
2017-07-04T02:54:59.359Z,101565.97
2017-07-04T02:57:26.891Z,101570.55
2017-07-04T02:59:54.428Z,101567.34
2017-07-04T03:02:21.935Z,101574.81
2017-07-04T03:04:49.496Z,101573.48
2017-07-04T03:07:17.027Z,101571.99
2017-07-04T03:09:44.550Z,101569.26
2017-07-04T03:12:12.092Z,101569.16
2017-07-04T03:14:39.595Z,101567.73
2017-07-04T03:17:07.164Z,101580.97
2017-07-04T03:19:34.699Z,101579.03
2017-07-04T03:22:02.239Z,101576.98
2017-07-04T03:24:29.759Z,101581.41
2017-07-04T03:26:57.366Z,101591.09
2017-07-04T03:29:24.902Z,101598.38
2017-07-04T03:31:52.450Z,101597.09
2017-07-04T03:34:19.981Z,101591.73
2017-07-04T03:36:47.533Z,101591.84
2017-07-04T03:39:15.128Z,101587.54
2017-07-04T03:41:42.648Z,101584.48
2017-07-04T03:44:10.195Z,101579.91
2017-07-04T03:46:37.700Z,101577.72
2017-07-04T03:49:05.259Z,101572.06
2017-07-04T03:51:32.756Z,101570.70
2017-07-04T03:54:00.333Z,101564.22
2017-07-04T03:56:27.840Z,101567.33
2017-07-04T03:58:55.347Z,101564.84
2017-07-04T04:01:22.916Z,101565.48
2017-07-04T04:03:50.485Z,101566.59
2017-07-04T04:06:18.025Z,101563.17
2017-07-04T04:08:45.599Z,101565.28
2017-07-04T04:11:13.187Z,101567.59
2017-07-04T04:13:40.723Z,101566.67
2017-07-04T04:16:08.273Z,101568.05
2017-07-04T04:18:35.870Z,101574.34
2017-07-04T04:21:03.444Z,101578.94
2017-07-04T04:23:31.015Z,101586.47
2017-07-04T04:25:58.679Z,101586.55
2017-07-04T04:28:26.228Z,101593.45
2017-07-04T04:30:53.856Z,101608.81
2017-07-04T04:33:21.449Z,101609.23
2017-07-04T04:35:49.004Z,101612.52
2017-07-04T04:38:16.707Z,101617.31
2017-07-04T04:40:44.276Z,101623.91
2017-07-04T04:43:11.811Z,101612.67
2017-07-04T04:45:39.562Z,101611.03
2017-07-04T04:48:07.076Z,101608.20
2017-07-04T04:50:34.639Z,101613.39
2017-07-04T04:53:02.175Z,101612.67
2017-07-04T04:55:29.792Z,101603.64
2017-07-04T04:57:57.337Z,101610.98
2017-07-04T05:00:25.119Z,101606.08
2017-07-04T05:02:52.640Z,101605.05
2017-07-04T05:05:20.158Z,101615.75
2017-07-04T05:07:47.756Z,101615.41
2017-07-04T05:10:15.271Z,101611.16
2017-07-04T05:12:42.836Z,101615.27
2017-07-04T05:15:10.368Z,101623.92
2017-07-04T05:17:37.945Z,101629.52
2017-07-04T05:20:05.507Z,101629.56
2017-07-04T05:22:33.243Z,101628.42
2017-07-04T05:25:00.761Z,101628.21
2017-07-04T05:27:28.333Z,101631.89
2017-07-04T05:29:56.036Z,101627.14
2017-07-04T05:32:23.635Z,101636.64
2017-07-04T05:34:51.258Z,101640.07
2017-07-04T05:37:18.808Z,101635.97
2017-07-04T05:39:46.385Z,101639.93
2017-07-04T05:42:13.927Z,101632.91
2017-07-04T05:44:41.607Z,101634.61
2017-07-04T05:47:09.120Z,101635.70
2017-07-04T05:49:36.639Z,101640.74
2017-07-04T05:52:04.210Z,101638.44
2017-07-04T05:54:31.746Z,101642.63
2017-07-04T05:56:59.655Z,101643.09
2017-07-04T05:59:27.167Z,101636.91
2017-07-04T06:01:54.690Z,101631.08
2017-07-04T06:04:22.248Z,101632.33
2017-07-04T06:06:49.762Z,101636.27
2017-07-04T06:09:17.325Z,101634.33
2017-07-04T06:11:44.936Z,101641.09
2017-07-04T06:14:12.506Z,101635.31
2017-07-04T06:16:40.031Z,101640.48
2017-07-04T06:19:07.731Z,101635.62
2017-07-04T06:21:35.239Z,101633.33
2017-07-04T06:24:02.946Z,101634.25
2017-07-04T06:26:30.459Z,101640.45
2017-07-04T06:28:57.968Z,101637.74
2017-07-04T06:31:25.535Z,101637.52
2017-07-04T06:33:53.042Z,101643.19
2017-07-04T06:36:20.594Z,101643.58
2017-07-04T06:38:48.103Z,101642.23
2017-07-04T06:41:15.689Z,101649.34
2017-07-04T06:43:43.211Z,101642.02
2017-07-04T06:46:11.103Z,101646.72
2017-07-04T06:48:38.811Z,101642.00
2017-07-04T06:51:06.334Z,101646.97
2017-07-04T06:53:33.947Z,101645.41
2017-07-04T06:56:01.498Z,101647.95
2017-07-04T06:58:29.043Z,101644.88
2017-07-04T07:00:56.635Z,101652.51
2017-07-04T07:03:24.188Z,101653.37
2017-07-04T07:05:51.718Z,101653.66
2017-07-04T07:10:46.940Z,101654.89
2017-07-04T07:13:14.463Z,101655.81
2017-07-04T07:15:42.239Z,101663.92
2017-07-04T07:18:09.751Z,101661.74
2017-07-04T07:20:37.314Z,101664.47
2017-07-04T07:23:04.827Z,101668.53
2017-07-04T07:25:32.732Z,101667.23
2017-07-04T07:28:00.239Z,101665.59
2017-07-04T07:30:27.750Z,101673.69
2017-07-04T07:32:55.303Z,101659.44
2017-07-04T07:35:22.816Z,101671.22
2017-07-04T07:37:50.393Z,101667.47
2017-07-04T07:40:17.892Z,101665.87
2017-07-04T07:42:45.560Z,101667.06
2017-07-04T07:45:13.066Z,101670.73
2017-07-04T07:47:40.572Z,101670.77
2017-07-04T07:50:08.120Z,101671.73
2017-07-04T07:52:35.695Z,101672.18
2017-07-04T07:55:03.242Z,101671.78
2017-07-04T07:57:30.807Z,101677.27
2017-07-04T07:59:58.355Z,101674.96
2017-07-04T08:02:25.910Z,101671.33
2017-07-04T08:04:53.889Z,101671.64
2017-07-04T08:07:21.408Z,101667.48
2017-07-04T08:09:48.926Z,101668.01
2017-07-04T08:12:16.482Z,101668.42
2017-07-04T08:14:43.989Z,101668.28
2017-07-04T08:17:11.544Z,101667.74
2017-07-04T08:19:39.103Z,101666.45
2017-07-04T08:22:06.663Z,101669.19
2017-07-04T08:24:34.192Z,101668.95
2017-07-04T08:27:01.868Z,101661.66
2017-07-04T08:29:29.444Z,101656.61
2017-07-04T08:31:56.979Z,101646.72
2017-07-04T08:34:24.626Z,101653.86
2017-07-04T08:36:52.191Z,101653.44
2017-07-04T08:39:19.835Z,101651.97
2017-07-04T08:41:47.408Z,101651.44
2017-07-04T08:44:15.023Z,101645.62
2017-07-04T08:46:42.631Z,101645.92
2017-07-04T08:49:10.203Z,101653.80
2017-07-04T08:51:37.776Z,101654.34
2017-07-04T08:54:05.434Z,101655.42
2017-07-04T08:56:32.965Z,101655.64
2017-07-04T08:59:00.494Z,101650.63
2017-07-04T09:01:28.058Z,101654.23
2017-07-04T09:03:55.625Z,101658.88
2017-07-04T09:06:23.172Z,101654.61
2017-07-04T09:08:50.782Z,101650.60
2017-07-04T09:11:18.576Z,101653.32
2017-07-04T09:13:46.095Z,101647.17
2017-07-04T09:16:13.681Z,101654.88
2017-07-04T09:18:41.296Z,101650.91
2017-07-04T09:21:08.819Z,101650.10
2017-07-04T09:23:36.392Z,101653.34
2017-07-04T09:26:03.907Z,101657.42
2017-07-04T09:28:31.510Z,101660.34
2017-07-04T09:30:59.039Z,101656.85
2017-07-04T09:33:26.604Z,101644.88
2017-07-04T09:35:54.108Z,101650.38
2017-07-04T09:38:21.703Z,101645.56
2017-07-04T09:40:49.304Z,101647.56
2017-07-04T09:43:16.977Z,101645.52
2017-07-04T09:45:44.496Z,101644.11
2017-07-04T09:48:12.051Z,101641.56
2017-07-04T09:50:39.663Z,101637.61
2017-07-04T09:53:07.192Z,101641.61
2017-07-04T09:55:34.815Z,101643.95
2017-07-04T09:58:02.336Z,101638.88
2017-07-04T10:00:29.951Z,101642.25
2017-07-04T10:02:57.520Z,101640.00
2017-07-04T10:05:25.380Z,101651.23
2017-07-04T10:07:52.903Z,101646.56
2017-07-04T10:10:20.423Z,101647.45
2017-07-04T10:12:48.001Z,101648.73
2017-07-04T10:15:15.551Z,101648.27
2017-07-04T10:17:43.157Z,101645.92
2017-07-04T10:20:10.710Z,101645.02
2017-07-04T10:22:38.264Z,101645.17
2017-07-04T10:25:05.805Z,101645.33
2017-07-04T10:27:33.325Z,101644.23
2017-07-04T10:30:00.948Z,101639.52
2017-07-04T10:32:28.495Z,101641.73
2017-07-04T10:34:56.194Z,101640.22
2017-07-04T10:37:23.752Z,101639.17
2017-07-04T10:39:51.508Z,101644.30
2017-07-04T10:42:19.050Z,101640.00
2017-07-04T10:44:46.621Z,101639.03
2017-07-04T10:47:14.179Z,101637.79
2017-07-04T10:49:41.888Z,101636.51
2017-07-04T10:52:09.434Z,101641.05
2017-07-04T10:54:36.954Z,101629.97
2017-07-04T10:57:04.508Z,101627.52
2017-07-04T10:59:32.074Z,101635.36
2017-07-04T11:01:59.627Z,101631.55
2017-07-04T11:04:27.191Z,101630.75
2017-07-04T11:06:54.936Z,101627.47
2017-07-04T11:09:22.461Z,101635.32
2017-07-04T11:11:49.994Z,101624.61
2017-07-04T11:14:17.681Z,101631.45
2017-07-04T11:16:45.278Z,101629.83
2017-07-04T11:19:12.910Z,101624.50
2017-07-04T11:21:40.501Z,101629.70
2017-07-04T11:24:08.288Z,101630.63
2017-07-04T11:26:35.814Z,101626.01
2017-07-04T11:29:03.357Z,101626.96
2017-07-04T11:31:30.907Z,101627.67
2017-07-04T11:33:58.432Z,101616.51
2017-07-04T11:36:26.019Z,101605.70
2017-07-04T11:38:53.583Z,101614.44
2017-07-04T11:41:21.140Z,101614.59
2017-07-04T11:43:48.650Z,101607.73
2017-07-04T11:46:16.239Z,101608.08
2017-07-04T11:48:43.884Z,101614.89
2017-07-04T11:51:11.612Z,101606.54
2017-07-04T11:53:39.153Z,101601.53
2017-07-04T11:56:06.754Z,101599.03
2017-07-04T11:58:34.324Z,101599.66
2017-07-04T12:01:01.917Z,101602.30
2017-07-04T12:03:29.498Z,101597.11
2017-07-04T12:05:57.018Z,101601.81
2017-07-04T12:08:24.582Z,101601.30
2017-07-04T12:10:52.090Z,101600.95
2017-07-04T12:13:19.792Z,101599.58
2017-07-04T12:15:47.327Z,101599.72
2017-07-04T12:18:14.853Z,101599.09
2017-07-04T12:20:42.432Z,101595.13
2017-07-04T12:23:10.842Z,101595.48
2017-07-04T12:25:38.401Z,101591.72
2017-07-04T12:28:05.935Z,101592.70
2017-07-04T12:30:33.490Z,101589.46
2017-07-04T12:33:01.010Z,101585.83
2017-07-04T12:35:28.571Z,101583.66
2017-07-04T12:37:56.085Z,101577.44
2017-07-04T12:40:23.643Z,101584.23
2017-07-04T12:42:51.169Z,101575.84
2017-07-04T12:45:18.779Z,101576.88
2017-07-04T12:47:46.320Z,101581.84
2017-07-04T12:50:13.939Z,101576.36
2017-07-04T12:52:41.516Z,101581.41
2017-07-04T12:55:09.035Z,101578.36
2017-07-04T12:57:36.633Z,101575.02
2017-07-04T13:00:04.139Z,101574.66
2017-07-04T13:02:31.773Z,101573.66
2017-07-04T13:04:59.302Z,101575.74
2017-07-04T13:07:26.908Z,101567.94
2017-07-04T13:09:54.422Z,101565.38
2017-07-04T13:12:21.972Z,101567.95
2017-07-04T13:14:49.625Z,101563.78
2017-07-04T13:17:17.203Z,101557.84
2017-07-04T13:19:44.759Z,101554.73
2017-07-04T13:22:12.300Z,101553.30
2017-07-04T13:24:39.867Z,101549.19
2017-07-04T13:27:07.380Z,101547.78
2017-07-04T13:29:34.947Z,101545.31
2017-07-04T13:32:02.511Z,101548.11
2017-07-04T13:34:30.082Z,101549.05
2017-07-04T13:36:57.623Z,101539.94
2017-07-04T13:39:25.192Z,101536.89
2017-07-04T13:41:52.720Z,101529.91
2017-07-04T13:44:20.292Z,101525.79
2017-07-04T13:46:47.809Z,101534.27
2017-07-04T13:49:15.317Z,101527.28
2017-07-04T13:51:42.863Z,101529.98
2017-07-04T13:54:10.436Z,101526.09
2017-07-04T13:56:37.968Z,101526.89
2017-07-04T13:59:05.541Z,101521.91
2017-07-04T14:01:33.052Z,101532.33
2017-07-04T14:04:00.644Z,101523.99
2017-07-04T14:06:28.228Z,101523.02
2017-07-04T14:08:55.739Z,101515.73
2017-07-04T14:11:23.280Z,101514.73
2017-07-04T14:13:50.810Z,101514.70
2017-07-04T14:16:18.403Z,101503.89
2017-07-04T14:18:45.925Z,101508.94
2017-07-04T14:21:13.473Z,101505.38
2017-07-04T14:23:41.099Z,101499.94
2017-07-04T14:26:08.636Z,101500.11
2017-07-04T14:28:36.244Z,101495.32
2017-07-04T14:31:03.871Z,101491.85
2017-07-04T14:33:31.396Z,101487.56
2017-07-04T14:35:58.947Z,101480.92
2017-07-04T14:38:26.633Z,101488.95
2017-07-04T14:40:54.220Z,101492.72
2017-07-04T14:43:21.861Z,101489.16
2017-07-04T14:45:49.463Z,101493.56
2017-07-04T14:48:17.027Z,101490.00
2017-07-04T14:50:44.542Z,101489.88
2017-07-04T14:53:12.209Z,101480.34
2017-07-04T14:55:39.724Z,101484.02
2017-07-04T14:58:07.281Z,101488.26
2017-07-04T15:00:34.932Z,101481.77
2017-07-04T15:03:02.443Z,101480.42
2017-07-04T15:05:30.004Z,101477.58
2017-07-04T15:07:57.537Z,101473.66
2017-07-04T15:10:25.112Z,101480.11
2017-07-04T15:12:52.627Z,101471.01
2017-07-04T15:15:20.201Z,101467.96
2017-07-04T15:17:47.722Z,101469.98
2017-07-04T15:20:15.245Z,101469.97
2017-07-04T15:22:42.801Z,101459.66
2017-07-04T15:25:10.324Z,101454.55
2017-07-04T15:27:37.920Z,101458.52
2017-07-04T15:30:05.457Z,101453.98
2017-07-04T15:32:33.002Z,101456.02
2017-07-04T15:35:00.526Z,101454.75
2017-07-04T15:37:28.076Z,101447.49
2017-07-04T15:39:55.597Z,101457.43
2017-07-04T15:44:57.027Z,101448.59
2017-07-04T15:47:24.607Z,101436.80
2017-07-04T15:49:52.131Z,101448.84
2017-07-04T15:52:19.659Z,101440.72
2017-07-04T15:54:47.211Z,101435.80
2017-07-04T15:57:14.759Z,101433.55
2017-07-04T15:59:42.328Z,101429.48
2017-07-04T16:02:09.834Z,101431.06
2017-07-04T16:04:37.518Z,101437.81
2017-07-04T16:07:05.082Z,101429.01
2017-07-04T16:09:32.574Z,101429.78
2017-07-04T16:12:00.114Z,101430.56
2017-07-04T16:14:27.624Z,101429.51
2017-07-04T16:16:55.294Z,101428.38
2017-07-04T16:19:22.942Z,101426.66
2017-07-04T16:21:50.492Z,101430.89
2017-07-04T16:24:18.041Z,101418.56
2017-07-04T16:26:45.595Z,101419.98
2017-07-04T16:29:13.145Z,101421.19
2017-07-04T16:31:40.709Z,101416.37
2017-07-04T16:34:08.278Z,101417.98
2017-07-04T16:36:35.833Z,101411.81
2017-07-04T16:39:03.364Z,101414.48
2017-07-04T16:41:31.079Z,101410.16
2017-07-04T16:43:58.639Z,101410.63
2017-07-04T16:46:26.156Z,101412.59
2017-07-04T16:48:53.737Z,101410.88
2017-07-04T16:51:21.253Z,101406.45
2017-07-04T16:53:48.893Z,101406.39
2017-07-04T16:56:16.420Z,101405.77
2017-07-04T16:58:44.292Z,101401.42
2017-07-04T17:01:11.819Z,101402.16
2017-07-04T17:03:39.353Z,101410.02
2017-07-04T17:06:06.903Z,101407.48
2017-07-04T17:08:34.458Z,101404.02
2017-07-04T17:11:02.195Z,101404.86
2017-07-04T17:13:29.713Z,101402.13
2017-07-04T17:15:57.232Z,101402.52
2017-07-04T17:18:24.827Z,101396.37
2017-07-04T17:20:52.348Z,101397.01
2017-07-04T17:23:19.936Z,101397.59
2017-07-04T17:25:47.461Z,101400.11
2017-07-04T17:28:15.035Z,101399.22
2017-07-04T17:30:42.561Z,101398.11
2017-07-04T17:33:10.238Z,101396.25
2017-07-04T17:35:37.817Z,101392.97
2017-07-04T17:38:05.350Z,101396.04
2017-07-04T17:40:32.923Z,101394.98
2017-07-04T17:43:00.484Z,101395.64
2017-07-04T17:45:28.057Z,101385.39
2017-07-04T17:47:55.571Z,101382.72
2017-07-04T17:50:23.119Z,101383.41
2017-07-04T17:52:50.636Z,101381.73
2017-07-04T17:55:18.326Z,101379.63
2017-07-04T17:57:45.850Z,101382.47
2017-07-04T18:00:13.375Z,101372.69
2017-07-04T18:02:40.934Z,101373.56
2017-07-04T18:05:08.456Z,101365.75
2017-07-04T18:07:36.000Z,101368.16
2017-07-04T18:10:03.555Z,101365.28
2017-07-04T18:12:31.243Z,101364.95
2017-07-04T18:14:58.780Z,101362.52
2017-07-04T18:17:26.302Z,101365.78
2017-07-04T18:19:53.848Z,101363.28
2017-07-04T18:22:21.376Z,101364.61
2017-07-04T18:24:48.961Z,101368.82
2017-07-04T18:27:16.553Z,101364.11
2017-07-04T18:29:44.124Z,101368.34
2017-07-04T18:32:11.680Z,101374.20
2017-07-04T18:34:39.591Z,101370.75
2017-07-04T18:37:07.124Z,101372.52
2017-07-04T18:39:34.641Z,101376.94
2017-07-04T18:42:02.263Z,101377.55
2017-07-04T18:44:35.517Z,101382.63
2017-07-04T18:47:12.861Z,101378.38
2017-07-04T18:49:45.120Z,101379.59
2017-07-04T18:52:12.758Z,101380.91
2017-07-04T18:54:40.339Z,101374.59
2017-07-04T18:57:08.293Z,101381.80
2017-07-04T18:59:35.877Z,101373.07
2017-07-04T19:02:03.489Z,101370.82
2017-07-04T19:04:31.089Z,101374.03
2017-07-04T19:06:58.613Z,101372.63
2017-07-04T19:09:26.256Z,101370.30
2017-07-04T19:11:53.783Z,101374.34
2017-07-04T19:14:21.370Z,101371.48
2017-07-04T19:16:48.893Z,101382.06
2017-07-04T19:19:16.559Z,101370.85
2017-07-04T19:21:44.099Z,101375.03
2017-07-04T19:24:11.697Z,101373.98
2017-07-04T19:26:39.266Z,101376.30
2017-07-04T19:29:06.787Z,101373.53
2017-07-04T19:31:34.353Z,101375.72
2017-07-04T19:34:01.895Z,101374.94
2017-07-04T19:36:29.609Z,101370.89
2017-07-04T19:38:57.168Z,101373.48
2017-07-04T19:41:24.707Z,101382.68
2017-07-04T19:43:52.311Z,101382.96
2017-07-04T19:46:19.824Z,101382.25
2017-07-04T19:48:47.411Z,101385.09
2017-07-04T19:51:14.937Z,101385.66
2017-07-04T19:53:42.688Z,101388.08
2017-07-04T19:56:10.213Z,101394.47
2017-07-04T19:58:37.747Z,101390.88
2017-07-04T20:01:05.322Z,101396.97
2017-07-04T20:03:32.863Z,101404.24
2017-07-04T20:06:00.426Z,101396.45
2017-07-04T20:08:27.931Z,101401.70
2017-07-04T20:10:55.515Z,101401.48
2017-07-04T20:13:23.052Z,101400.84
2017-07-04T20:15:50.601Z,101399.95
2017-07-04T20:18:18.117Z,101403.37
2017-07-04T20:20:45.869Z,101397.62
2017-07-04T20:23:13.390Z,101404.06
2017-07-04T20:25:40.919Z,101396.01
2017-07-04T20:28:08.476Z,101396.88
2017-07-04T20:30:36.019Z,101398.23
2017-07-04T20:33:03.587Z,101400.03
2017-07-04T20:35:31.125Z,101398.65
2017-07-04T20:37:58.841Z,101399.85
2017-07-04T20:40:26.377Z,101401.70
2017-07-04T20:42:53.904Z,101404.75
2017-07-04T20:45:21.479Z,101396.66
2017-07-04T20:47:48.997Z,101405.27
2017-07-04T20:50:16.568Z,101405.55
2017-07-04T20:52:44.117Z,101407.15
2017-07-04T20:55:11.689Z,101398.08
2017-07-04T20:57:39.208Z,101394.08
2017-07-04T21:00:06.889Z,101392.50
2017-07-04T21:02:34.423Z,101392.50
2017-07-04T21:05:01.952Z,101401.84
2017-07-04T21:07:29.519Z,101399.52
2017-07-04T21:09:57.023Z,101398.73
2017-07-04T21:12:24.577Z,101398.56
2017-07-04T21:14:52.338Z,101403.29
2017-07-04T21:17:19.912Z,101401.77
2017-07-04T21:19:47.583Z,101401.44
2017-07-04T21:22:15.175Z,101404.02
2017-07-04T21:24:42.696Z,101414.24
2017-07-04T21:27:10.408Z,101396.56
2017-07-04T21:29:37.943Z,101400.70
2017-07-04T21:32:05.456Z,101396.64
2017-07-04T21:34:33.008Z,101395.18
2017-07-04T21:37:00.528Z,101395.83
2017-07-04T21:39:28.160Z,101393.41
2017-07-04T21:41:55.705Z,101393.72
2017-07-04T21:44:23.418Z,101390.36
2017-07-04T21:46:50.963Z,101389.00
2017-07-04T21:49:18.484Z,101397.19
2017-07-04T21:51:46.067Z,101394.52
2017-07-04T21:54:13.612Z,101396.20
2017-07-04T21:56:41.196Z,101386.80
2017-07-04T21:59:08.777Z,101394.92
2017-07-04T22:01:36.327Z,101386.73
2017-07-04T22:04:03.863Z,101382.72
2017-07-04T22:06:31.587Z,101387.42
2017-07-04T22:08:59.147Z,101387.57
2017-07-04T22:11:26.655Z,101388.63
2017-07-04T22:13:54.224Z,101384.73
2017-07-04T22:16:21.767Z,101387.86
2017-07-04T22:18:49.376Z,101384.06
2017-07-04T22:21:16.887Z,101373.86
2017-07-04T22:23:44.673Z,101380.64
2017-07-04T22:26:12.187Z,101371.70
2017-07-04T22:28:39.731Z,101377.09
2017-07-04T22:31:07.407Z,101377.18
2017-07-04T22:33:34.923Z,101375.70
2017-07-04T22:36:02.467Z,101374.80
2017-07-04T22:38:29.988Z,101373.75
2017-07-04T22:40:57.543Z,101372.59
2017-07-04T22:43:25.049Z,101376.23
2017-07-04T22:45:52.763Z,101372.34
2017-07-04T22:48:20.292Z,101371.89
2017-07-04T22:50:47.807Z,101370.20
2017-07-04T22:53:15.445Z,101364.05
2017-07-04T22:55:42.952Z,101367.19
2017-07-04T22:58:10.496Z,101373.55
2017-07-04T23:00:38.028Z,101367.95
2017-07-04T23:03:05.707Z,101364.05
2017-07-04T23:05:33.221Z,101364.27
2017-07-04T23:08:00.808Z,101370.28
2017-07-04T23:10:28.376Z,101369.43
2017-07-04T23:12:56.024Z,101370.38
2017-07-04T23:15:23.586Z,101367.46
2017-07-04T23:17:51.185Z,101362.94
2017-07-04T23:20:18.846Z,101356.25
2017-07-04T23:22:46.377Z,101356.53
2017-07-04T23:25:13.966Z,101358.91
2017-07-04T23:27:41.553Z,101357.59
2017-07-04T23:30:09.094Z,101356.48
2017-07-04T23:32:36.718Z,101358.50
2017-07-04T23:35:04.240Z,101355.48
2017-07-04T23:37:31.809Z,101349.55
2017-07-04T23:39:59.343Z,101351.65
2017-07-04T23:42:26.921Z,101349.80
2017-07-04T23:44:54.463Z,101352.64
2017-07-04T23:47:22.133Z,101347.25
2017-07-04T23:49:49.653Z,101345.66
2017-07-04T23:52:17.175Z,101340.59
2017-07-04T23:54:44.739Z,101335.74
2017-07-04T23:57:12.253Z,101338.53
2017-07-04T23:59:39.816Z,101335.66
